createdAt,value
2023-05-17T00:02:05.809Z,15.12
2023-05-17T00:04:32.231Z,15.07
2023-05-17T00:06:58.654Z,15.03
2023-05-17T00:09:25.065Z,14.97
2023-05-17T00:11:51.376Z,14.93
2023-05-17T00:14:17.764Z,14.87
2023-05-17T00:16:44.094Z,14.82
2023-05-17T00:19:10.620Z,14.78
2023-05-17T00:21:37.087Z,14.73
2023-05-17T00:24:03.743Z,14.60
2023-05-17T00:26:30.220Z,14.62
2023-05-17T00:28:56.615Z,14.59
2023-05-17T00:31:22.992Z,14.55
2023-05-17T00:33:49.406Z,14.50
2023-05-17T00:36:15.760Z,14.46
2023-05-17T00:38:42.084Z,14.42
2023-05-17T00:41:08.615Z,14.37
2023-05-17T00:43:35.021Z,14.32
2023-05-17T00:46:01.354Z,14.27
2023-05-17T00:48:27.875Z,14.21
2023-05-17T00:50:54.285Z,14.16
2023-05-17T00:53:20.665Z,14.13
2023-05-17T00:55:47.196Z,14.10
2023-05-17T00:58:13.560Z,14.06
2023-05-17T01:00:39.960Z,14.02
2023-05-17T01:03:06.529Z,13.99
2023-05-17T01:05:32.942Z,13.94
2023-05-17T01:07:59.289Z,13.92
2023-05-17T01:10:25.653Z,13.88
2023-05-17T01:12:52.108Z,13.84
2023-05-17T01:15:18.453Z,13.80
2023-05-17T01:17:44.950Z,13.78
2023-05-17T01:20:11.496Z,13.74
2023-05-17T01:22:37.917Z,13.71
2023-05-17T01:25:04.223Z,13.68
2023-05-17T01:27:30.556Z,13.64
2023-05-17T01:29:56.889Z,13.61
2023-05-17T01:32:23.343Z,13.58
2023-05-17T01:34:49.871Z,13.55
2023-05-17T01:37:16.206Z,13.52
2023-05-17T01:39:42.612Z,13.50
2023-05-17T01:42:09.010Z,13.47
2023-05-17T01:44:35.385Z,13.45
2023-05-17T01:47:01.786Z,13.43
2023-05-17T01:49:28.639Z,13.41
2023-05-17T01:51:54.978Z,13.40
2023-05-17T01:54:21.457Z,13.38
2023-05-17T01:56:48.090Z,13.35
2023-05-17T01:59:15.223Z,13.33
2023-05-17T02:01:41.581Z,13.32
2023-05-17T02:04:07.958Z,13.29
2023-05-17T02:06:34.644Z,13.26
2023-05-17T02:09:01.197Z,13.24
2023-05-17T02:11:27.600Z,13.23
2023-05-17T02:13:54.350Z,13.11
2023-05-17T02:16:20.657Z,13.17
2023-05-17T02:18:47.157Z,13.16
2023-05-17T02:21:13.596Z,13.15
2023-05-17T02:23:40.392Z,13.13
2023-05-17T02:26:06.816Z,13.12
2023-05-17T02:28:33.178Z,13.10
2023-05-17T02:30:59.641Z,13.08
2023-05-17T02:33:26.057Z,13.07
2023-05-17T02:35:52.570Z,13.04
2023-05-17T02:38:18.944Z,13.03
2023-05-17T02:40:45.263Z,13.02
2023-05-17T02:43:11.582Z,13.01
2023-05-17T02:45:38.005Z,13.00
2023-05-17T02:48:04.395Z,12.99
2023-05-17T02:50:30.831Z,12.97
2023-05-17T02:52:57.191Z,12.97
2023-05-17T02:55:23.564Z,12.96
2023-05-17T02:57:50.149Z,12.95
2023-05-17T03:00:16.475Z,12.95
2023-05-17T03:02:43.168Z,12.94
2023-05-17T03:05:09.694Z,12.94
2023-05-17T03:07:36.035Z,12.93
2023-05-17T03:10:02.525Z,12.92
2023-05-17T03:12:29.639Z,12.90
2023-05-17T03:14:56.204Z,12.91
2023-05-17T03:17:22.865Z,12.90
2023-05-17T03:19:49.368Z,12.89
2023-05-17T03:22:15.804Z,12.87
2023-05-17T03:24:42.265Z,12.86
2023-05-17T03:27:08.638Z,12.84
2023-05-17T03:29:34.979Z,12.83
2023-05-17T03:32:01.522Z,12.82
2023-05-17T03:34:27.850Z,12.80
2023-05-17T03:36:54.214Z,12.80
2023-05-17T03:39:21.683Z,12.78
2023-05-17T03:41:48.033Z,12.78
2023-05-17T03:44:14.586Z,12.77
2023-05-17T03:46:41.201Z,12.77
2023-05-17T03:49:07.894Z,12.77
2023-05-17T03:51:34.365Z,12.76
2023-05-17T03:54:00.714Z,12.74
2023-05-17T03:56:27.050Z,12.74
2023-05-17T03:58:53.557Z,12.73
2023-05-17T04:01:19.883Z,12.74
2023-05-17T04:03:46.291Z,12.73
2023-05-17T04:06:12.633Z,12.72
2023-05-17T04:08:39.113Z,12.72
2023-05-17T04:11:05.506Z,12.71
2023-05-17T04:13:31.874Z,12.71
2023-05-17T04:15:58.226Z,12.74
2023-05-17T04:18:26.735Z,12.80
2023-05-17T04:20:53.120Z,12.89
2023-05-17T04:23:19.460Z,13.08
2023-05-17T04:25:45.801Z,13.15
2023-05-17T04:28:12.074Z,13.03
2023-05-17T04:30:38.455Z,12.96
2023-05-17T04:33:05.461Z,12.92
2023-05-17T04:35:32.033Z,12.96
2023-05-17T04:37:58.448Z,12.91
2023-05-17T04:40:24.789Z,12.88
2023-05-17T04:42:51.183Z,12.87
2023-05-17T04:45:17.480Z,12.91
2023-05-17T04:50:27.326Z,12.98
2023-05-17T04:52:54.016Z,13.02
2023-05-17T04:55:20.402Z,13.05
2023-05-17T04:57:47.209Z,13.08
2023-05-17T05:00:13.961Z,13.21
2023-05-17T05:02:43.764Z,13.55
2023-05-17T05:05:10.394Z,13.61
2023-05-17T05:07:36.798Z,13.67
2023-05-17T05:10:03.142Z,13.80
2023-05-17T05:12:29.470Z,14.00
2023-05-17T05:14:55.916Z,14.10
2023-05-17T05:17:22.230Z,14.27
2023-05-17T05:19:48.626Z,14.39
2023-05-17T05:22:15.013Z,14.51
2023-05-17T05:24:41.737Z,14.76
2023-05-17T05:27:08.080Z,15.02
2023-05-17T05:29:34.398Z,15.44
2023-05-17T05:32:00.818Z,16.00
2023-05-17T05:34:27.275Z,16.43
2023-05-17T05:36:53.599Z,16.61
2023-05-17T05:39:20.001Z,17.02
2023-05-17T05:41:46.339Z,17.29
2023-05-17T05:44:12.642Z,17.32
2023-05-17T05:46:38.962Z,17.39
2023-05-17T05:49:05.421Z,17.55
2023-05-17T05:51:31.988Z,17.97
2023-05-17T05:53:58.329Z,18.01
2023-05-17T05:56:24.780Z,17.96
2023-05-17T05:58:51.366Z,18.08
2023-05-17T06:01:17.893Z,18.23
2023-05-17T06:03:44.198Z,18.52
2023-05-17T06:06:10.635Z,18.90
2023-05-17T06:08:37.064Z,19.24
2023-05-17T06:11:03.456Z,19.40
2023-05-17T06:13:29.835Z,19.51
2023-05-17T06:15:56.225Z,19.26
2023-05-17T06:18:22.691Z,19.53
2023-05-17T06:20:49.104Z,19.38
2023-05-17T06:23:15.766Z,19.35
2023-05-17T06:25:42.126Z,19.35
2023-05-17T06:28:08.460Z,19.38
2023-05-17T06:30:34.802Z,19.33
2023-05-17T06:33:01.238Z,19.41
2023-05-17T06:35:28.135Z,19.60
2023-05-17T06:37:55.846Z,20.10
2023-05-17T06:40:22.156Z,20.50
2023-05-17T06:42:48.463Z,20.70
2023-05-17T06:45:14.950Z,20.81
2023-05-17T06:47:41.391Z,20.99
2023-05-17T06:50:07.774Z,21.13
2023-05-17T06:52:34.131Z,21.38
2023-05-17T06:55:00.551Z,21.54
2023-05-17T06:57:26.947Z,21.52
2023-05-17T06:59:53.412Z,21.54
2023-05-17T07:02:19.792Z,21.56
2023-05-17T07:04:46.513Z,21.57
2023-05-17T07:07:13.255Z,21.66
2023-05-17T07:09:39.628Z,21.99
2023-05-17T07:12:05.967Z,22.34
2023-05-17T07:14:32.385Z,22.42
2023-05-17T07:16:58.749Z,22.70
2023-05-17T07:19:26.009Z,22.76
2023-05-17T07:21:52.558Z,22.75
2023-05-17T07:24:18.855Z,22.26
2023-05-17T07:26:45.200Z,22.00
2023-05-17T07:29:11.546Z,21.88
2023-05-17T07:31:38.085Z,21.80
2023-05-17T07:34:04.437Z,21.78
2023-05-17T07:36:30.995Z,21.77
2023-05-17T07:38:57.347Z,21.78
2023-05-17T07:41:23.752Z,21.77
2023-05-17T07:43:50.357Z,21.79
2023-05-17T07:46:16.863Z,21.81
2023-05-17T07:48:43.434Z,21.85
2023-05-17T07:51:09.920Z,21.88
2023-05-17T07:53:36.362Z,22.05
2023-05-17T07:56:02.704Z,22.51
2023-05-17T07:58:29.072Z,23.08
2023-05-17T08:00:55.490Z,22.67
2023-05-17T08:03:21.889Z,22.45
2023-05-17T08:05:48.321Z,22.35
2023-05-17T08:08:14.713Z,22.35
2023-05-17T08:10:41.076Z,22.92
2023-05-17T08:13:07.492Z,23.73
2023-05-17T08:15:33.838Z,24.14
2023-05-17T08:18:02.944Z,24.83
2023-05-17T08:20:30.778Z,25.33
2023-05-17T08:22:57.137Z,25.70
2023-05-17T08:25:23.687Z,26.02
2023-05-17T08:27:50.034Z,24.86
2023-05-17T08:30:28.153Z,24.10
2023-05-17T08:32:55.413Z,24.10
2023-05-17T08:35:22.013Z,24.69
2023-05-17T08:37:48.407Z,24.72
2023-05-17T08:40:14.869Z,25.04
2023-05-17T08:42:41.381Z,24.61
2023-05-17T08:45:07.813Z,25.51
2023-05-17T08:47:34.326Z,26.29
2023-05-17T08:50:00.966Z,26.49
2023-05-17T08:52:27.571Z,26.39
2023-05-17T08:54:54.249Z,25.38
2023-05-17T08:57:20.628Z,24.59
2023-05-17T09:05:11.351Z,23.85
2023-05-17T09:07:38.053Z,23.73
2023-05-17T09:10:04.401Z,23.70
2023-05-17T09:12:30.778Z,23.68
2023-05-17T09:14:57.090Z,23.59
2023-05-17T09:17:23.486Z,23.58
2023-05-17T09:19:49.910Z,23.56
2023-05-17T09:22:16.509Z,23.51
2023-05-17T09:24:43.011Z,23.54
2023-05-17T09:27:10.741Z,23.51
2023-05-17T09:29:37.099Z,23.48
2023-05-17T09:32:03.540Z,23.46
2023-05-17T09:34:30.105Z,23.41
2023-05-17T09:36:56.494Z,23.40
2023-05-17T09:39:22.866Z,23.46
2023-05-17T09:41:49.221Z,23.46
2023-05-17T09:47:27.741Z,23.34
2023-05-17T09:49:54.791Z,23.41
2023-05-17T10:51:01.913Z,23.15
2023-05-17T10:53:28.532Z,23.10
2023-05-17T10:55:55.110Z,23.05
2023-05-17T10:58:21.505Z,23.01
2023-05-17T11:00:47.853Z,23.00
2023-05-17T11:06:25.567Z,22.99
2023-05-17T11:08:53.029Z,22.91
2023-05-17T11:11:19.723Z,22.84
2023-05-17T11:13:46.125Z,22.86
2023-05-17T11:16:12.554Z,22.84
2023-05-17T11:18:39.840Z,22.77
2023-05-17T11:21:08.237Z,22.76
2023-05-17T11:23:34.686Z,22.77
2023-05-17T11:26:12.863Z,22.78
2023-05-17T11:28:42.828Z,22.66
2023-05-17T11:31:09.500Z,22.60
2023-05-17T11:33:35.929Z,22.60
2023-05-17T11:36:02.455Z,22.58
2023-05-17T11:38:28.815Z,22.54
2023-05-17T11:40:55.162Z,22.52
2023-05-17T11:43:21.472Z,22.49
2023-05-17T11:45:48.548Z,22.46
2023-05-17T11:48:15.964Z,22.38
2023-05-17T11:50:42.399Z,22.40
2023-05-17T11:53:11.766Z,22.40
2023-05-17T11:55:38.047Z,22.38
2023-05-17T11:58:04.405Z,22.37
2023-05-17T12:00:30.964Z,22.38
2023-05-17T12:02:57.391Z,22.40
2023-05-17T12:05:23.840Z,22.41
2023-05-17T12:07:50.207Z,22.32
2023-05-17T12:10:16.572Z,22.26
2023-05-17T12:12:42.938Z,22.22
2023-05-17T12:15:09.256Z,22.22
2023-05-17T12:17:35.816Z,22.23
2023-05-17T12:20:02.373Z,22.23
2023-05-17T12:22:28.787Z,22.23
2023-05-17T12:24:55.163Z,22.20
2023-05-17T12:27:21.540Z,22.14
2023-05-17T12:29:47.893Z,22.19
2023-05-17T12:32:14.270Z,22.21
2023-05-17T12:34:40.625Z,22.21
2023-05-17T12:37:07.040Z,22.22
2023-05-17T12:39:34.717Z,22.22
2023-05-17T12:42:01.081Z,22.22
2023-05-17T12:44:27.419Z,22.22
2023-05-17T12:46:54.014Z,22.21
2023-05-17T12:49:23.762Z,22.21
2023-05-17T12:51:50.190Z,22.20
2023-05-17T12:54:16.544Z,22.21
2023-05-17T12:56:42.875Z,22.16
2023-05-17T12:59:09.244Z,22.13
2023-05-17T13:01:35.619Z,22.13
2023-05-17T13:04:02.630Z,22.10
2023-05-17T13:06:29.099Z,22.12
2023-05-17T13:08:55.523Z,22.12
2023-05-17T13:11:21.860Z,22.03
2023-05-17T13:13:48.248Z,22.00
2023-05-17T13:16:14.657Z,22.00
2023-05-17T13:18:41.273Z,22.01
2023-05-17T13:21:07.742Z,22.02
2023-05-17T13:23:34.093Z,21.96
2023-05-17T13:26:00.565Z,21.93
2023-05-17T13:28:27.005Z,21.89
2023-05-17T13:30:53.500Z,21.88
2023-05-17T13:33:19.973Z,21.88
2023-05-17T13:35:46.438Z,21.83
2023-05-17T13:38:12.911Z,21.84
2023-05-17T13:40:39.286Z,21.85
2023-05-17T13:43:07.924Z,21.88
2023-05-17T13:45:34.802Z,21.89
2023-05-17T13:48:01.382Z,21.84
2023-05-17T13:50:28.237Z,21.81
2023-05-17T13:52:54.950Z,21.77
2023-05-17T13:55:24.360Z,21.73
2023-05-17T13:57:50.753Z,21.74
2023-05-17T14:00:17.270Z,21.77
2023-05-17T14:02:43.999Z,21.75
2023-05-17T14:05:10.477Z,21.77
2023-05-17T14:07:36.936Z,21.76
2023-05-17T14:10:03.321Z,21.75
2023-05-17T14:12:29.699Z,21.73
2023-05-17T14:14:56.046Z,21.72
2023-05-17T14:17:22.375Z,21.72
2023-05-17T14:19:48.863Z,21.73
2023-05-17T14:22:15.482Z,21.73
2023-05-17T14:24:41.822Z,21.73
2023-05-17T14:27:08.176Z,21.74
2023-05-17T14:29:34.566Z,21.74
2023-05-17T14:32:00.879Z,21.73
2023-05-17T14:34:27.604Z,21.72
2023-05-17T14:36:54.648Z,21.68
2023-05-17T14:39:20.978Z,21.63
2023-05-17T14:41:47.351Z,21.61
2023-05-17T14:44:13.722Z,21.59
2023-05-17T14:46:40.138Z,21.58
2023-05-17T14:49:06.608Z,21.52
2023-05-17T14:51:32.979Z,21.48
2023-05-17T14:53:59.246Z,21.45
2023-05-17T14:56:25.814Z,21.46
2023-05-17T14:58:52.171Z,21.44
2023-05-17T15:01:18.700Z,21.43
2023-05-17T15:03:45.147Z,21.38
2023-05-17T15:06:12.115Z,21.33
2023-05-17T15:08:38.520Z,21.27
2023-05-17T15:11:04.913Z,21.25
2023-05-17T15:13:31.366Z,21.20
2023-05-17T15:15:57.743Z,21.18
2023-05-17T15:18:24.112Z,21.18
2023-05-17T15:20:50.538Z,21.18
2023-05-17T15:23:16.905Z,21.16
2023-05-17T15:25:43.257Z,21.16
2023-05-17T15:28:09.738Z,21.16
2023-05-17T15:30:36.064Z,21.11
2023-05-17T15:33:02.926Z,21.08
2023-05-17T15:38:44.032Z,21.22
2023-05-17T15:41:10.784Z,21.35
2023-05-17T15:43:37.268Z,21.46
2023-05-17T15:46:04.712Z,21.54
2023-05-17T15:48:33.667Z,21.61
2023-05-17T15:51:01.685Z,21.67
2023-05-17T15:53:28.065Z,21.72
2023-05-17T15:55:54.375Z,21.76
2023-05-17T15:58:20.719Z,21.79
2023-05-17T16:00:47.280Z,21.80
2023-05-17T16:03:13.683Z,21.82
2023-05-17T16:05:40.359Z,21.82
2023-05-17T16:08:06.774Z,21.83
2023-05-17T16:10:33.337Z,21.84
2023-05-17T16:12:59.676Z,21.84
2023-05-17T16:15:26.028Z,21.85
2023-05-17T16:17:52.516Z,21.87
2023-05-17T16:20:22.017Z,21.87
2023-05-17T16:22:48.346Z,21.88
2023-05-17T16:25:14.686Z,21.89
2023-05-17T16:27:41.332Z,21.87
2023-05-17T16:30:07.631Z,21.86
2023-05-17T16:32:34.161Z,21.84
2023-05-17T16:35:00.626Z,21.83
2023-05-17T16:37:27.318Z,21.80
2023-05-17T16:39:53.662Z,21.81
2023-05-17T16:42:20.165Z,21.79
2023-05-17T16:44:46.516Z,21.79
2023-05-17T16:47:13.287Z,21.79
2023-05-17T16:49:39.684Z,21.77
2023-05-17T16:52:05.982Z,21.76
2023-05-17T16:54:33.266Z,21.73
2023-05-17T16:56:59.582Z,21.71
2023-05-17T16:59:25.940Z,21.69
2023-05-17T17:01:52.896Z,21.67
2023-05-17T17:04:19.314Z,21.67
2023-05-17T17:06:49.076Z,21.63
2023-05-17T17:09:15.502Z,21.63
2023-05-17T17:11:42.037Z,21.59
2023-05-17T17:14:08.444Z,21.58
2023-05-17T17:16:34.872Z,21.56
2023-05-17T17:19:01.569Z,21.55
2023-05-17T17:21:27.922Z,21.51
2023-05-17T17:23:54.276Z,21.51
2023-05-17T17:26:20.602Z,21.49
2023-05-17T17:28:46.971Z,21.47
2023-05-17T17:31:13.312Z,21.45
2023-05-17T17:33:39.785Z,21.43
2023-05-17T17:36:06.429Z,21.42
2023-05-17T17:38:32.941Z,21.40
2023-05-17T17:40:59.698Z,21.37
2023-05-17T17:43:26.094Z,21.35
2023-05-17T17:45:52.562Z,21.34
2023-05-17T17:48:18.934Z,21.32
2023-05-17T17:50:45.234Z,21.31
2023-05-17T17:53:11.663Z,21.29
2023-05-17T17:55:38.487Z,21.26
2023-05-17T17:58:05.528Z,21.24
2023-05-17T18:00:31.944Z,21.22
2023-05-17T18:02:58.491Z,21.20
2023-05-17T18:05:24.880Z,21.18
2023-05-17T18:07:51.353Z,21.15
2023-05-17T18:10:17.739Z,21.15
2023-05-17T18:12:44.032Z,21.12
2023-05-17T18:15:10.473Z,21.10
2023-05-17T18:17:37.068Z,21.08
2023-05-17T18:20:03.388Z,21.07
2023-05-17T18:22:29.722Z,21.06
2023-05-17T18:24:56.041Z,21.05
2023-05-17T18:27:22.482Z,21.04
2023-05-17T18:29:48.804Z,21.01
2023-05-17T18:32:15.189Z,21.01
2023-05-17T18:34:41.533Z,20.99
2023-05-17T18:37:10.549Z,20.98
2023-05-17T18:39:36.909Z,20.96
2023-05-17T18:42:03.219Z,20.94
2023-05-17T18:44:31.698Z,20.93
2023-05-17T18:46:58.146Z,20.91
2023-05-17T18:49:24.791Z,20.90
2023-05-17T18:51:51.512Z,20.87
2023-05-17T18:54:17.818Z,20.86
2023-05-17T18:56:44.604Z,20.83
2023-05-17T18:59:10.990Z,20.79
2023-05-17T19:01:37.420Z,20.77
2023-05-17T19:04:03.941Z,20.75
2023-05-17T19:06:30.680Z,20.74
2023-05-17T19:08:57.193Z,20.72
2023-05-17T19:11:26.397Z,20.70
2023-05-17T19:13:52.737Z,20.69
2023-05-17T19:16:19.987Z,20.67
2023-05-17T19:18:46.893Z,20.64
2023-05-17T19:21:14.601Z,20.62
2023-05-17T19:23:41.024Z,20.61
2023-05-17T19:26:07.468Z,20.58
2023-05-17T19:28:33.793Z,20.56
2023-05-17T19:31:00.218Z,20.54
2023-05-17T19:33:26.566Z,20.52
2023-05-17T19:35:52.879Z,20.49
2023-05-17T19:38:19.322Z,20.48
2023-05-17T19:40:45.671Z,20.46
2023-05-17T19:43:12.375Z,20.44
2023-05-17T19:45:39.571Z,20.42
2023-05-17T19:48:07.003Z,20.41
2023-05-17T19:50:33.634Z,20.41
2023-05-17T19:52:59.937Z,20.38
2023-05-17T19:55:26.231Z,20.37
2023-05-17T19:57:52.580Z,20.36
2023-05-17T20:00:18.894Z,20.33
2023-05-17T20:02:45.598Z,20.33
2023-05-17T20:05:12.174Z,20.32
2023-05-17T20:07:38.490Z,20.30
2023-05-17T20:10:04.830Z,20.29
2023-05-17T20:12:31.251Z,20.27
2023-05-17T20:14:57.565Z,20.25
2023-05-17T20:17:24.131Z,20.23
2023-05-17T20:19:50.468Z,20.21
2023-05-17T20:22:16.747Z,20.20
2023-05-17T20:24:43.057Z,20.19
2023-05-17T20:27:09.298Z,20.15
2023-05-17T20:29:35.590Z,20.12
2023-05-17T20:32:01.979Z,20.11
2023-05-17T20:34:28.368Z,20.08
2023-05-17T20:36:54.704Z,20.07
2023-05-17T20:39:22.266Z,20.05
2023-05-17T20:41:48.702Z,20.04
2023-05-17T20:44:15.033Z,20.02
2023-05-17T20:46:41.569Z,20.00
2023-05-17T20:49:07.918Z,19.98
2023-05-17T20:51:34.316Z,19.97
2023-05-17T20:54:00.612Z,19.97
2023-05-17T20:56:27.029Z,19.96
2023-05-17T20:58:53.428Z,19.94
2023-05-17T21:01:19.803Z,19.95
2023-05-17T21:03:46.560Z,19.93
2023-05-17T21:06:13.331Z,19.92
2023-05-17T21:08:39.835Z,19.91
2023-05-17T21:11:06.428Z,19.88
2023-05-17T21:13:32.881Z,19.89
2023-05-17T21:15:59.200Z,19.87
2023-05-17T21:18:25.658Z,19.85
2023-05-17T21:20:51.952Z,19.83
2023-05-17T21:23:18.360Z,19.82
2023-05-17T21:25:44.775Z,19.81
2023-05-17T21:28:11.143Z,19.78
2023-05-17T21:30:37.512Z,19.77
2023-05-17T21:33:03.980Z,19.75
2023-05-17T21:35:30.263Z,19.74
2023-05-17T21:37:56.581Z,19.72
2023-05-17T21:40:23.138Z,19.70
2023-05-17T21:42:49.465Z,19.69
2023-05-17T21:45:15.802Z,19.67
2023-05-17T21:47:42.526Z,19.66
2023-05-17T21:50:08.854Z,19.64
2023-05-17T21:52:35.145Z,19.61
2023-05-17T21:55:01.574Z,19.42
2023-05-17T21:57:27.854Z,19.11
2023-05-17T21:59:54.232Z,18.79
2023-05-17T22:02:20.592Z,18.51
2023-05-17T22:04:46.917Z,18.26
2023-05-17T22:07:13.275Z,18.03
2023-05-17T22:09:39.668Z,17.81
2023-05-17T22:12:06.082Z,17.62
2023-05-17T22:14:32.528Z,17.44
2023-05-17T22:16:58.786Z,17.27
2023-05-17T22:19:25.208Z,17.11
2023-05-17T22:21:51.641Z,16.95
2023-05-17T22:24:18.332Z,16.81
2023-05-17T22:26:44.666Z,16.65
2023-05-17T22:29:10.945Z,16.51
2023-05-17T22:31:37.198Z,16.39
2023-05-17T22:34:03.646Z,16.23
2023-05-17T22:36:30.464Z,16.11
2023-05-17T22:38:57.019Z,16.01
2023-05-17T22:41:23.325Z,15.90
2023-05-17T22:43:49.749Z,15.78
2023-05-17T22:46:21.171Z,15.67
2023-05-17T22:51:35.738Z,15.46
2023-05-17T22:54:02.032Z,15.39
2023-05-17T22:56:28.302Z,15.30
2023-05-17T22:58:54.578Z,15.21
2023-05-17T23:01:20.890Z,15.14
2023-05-17T23:03:47.194Z,15.08
2023-05-17T23:06:13.706Z,15.00
2023-05-17T23:08:41.135Z,14.91
2023-05-17T23:11:07.503Z,14.84
2023-05-17T23:13:33.793Z,14.76
2023-05-17T23:16:00.144Z,14.68
2023-05-17T23:18:26.443Z,14.61
2023-05-17T23:20:52.775Z,14.54
2023-05-17T23:23:19.044Z,14.47
2023-05-17T23:25:45.486Z,14.41
2023-05-17T23:28:11.751Z,14.35
2023-05-17T23:30:38.140Z,14.28
2023-05-17T23:33:04.450Z,14.20
2023-05-17T23:35:31.010Z,14.15
2023-05-17T23:37:57.533Z,14.08
2023-05-17T23:40:24.152Z,14.01
2023-05-17T23:42:50.432Z,13.94
2023-05-17T23:45:16.773Z,13.89
2023-05-17T23:47:43.223Z,13.82
2023-05-17T23:50:09.606Z,13.78
2023-05-17T23:52:35.887Z,13.75
2023-05-17T23:55:02.161Z,13.69
2023-05-17T23:57:28.455Z,13.66
2023-05-17T23:59:54.724Z,13.61
